createdAt,value
2018-04-25T00:00:29.441Z,7.73
2018-04-25T00:02:59.195Z,10.53
2018-04-25T00:05:29.847Z,9.70
2018-04-25T00:08:00.480Z,10.23
2018-04-25T00:10:30.403Z,8.65
2018-04-25T00:13:00.384Z,8.20
2018-04-25T00:15:31.230Z,8.95
2018-04-25T00:18:01.988Z,11.43
2018-04-25T00:20:31.879Z,13.30
2018-04-25T00:23:02.528Z,12.60
2018-04-25T00:25:32.258Z,10.67
2018-04-25T00:28:02.095Z,9.60
2018-04-25T00:30:32.267Z,10.60
2018-04-25T00:33:03.658Z,10.37
2018-04-25T00:35:33.521Z,10.40
2018-04-25T00:38:04.014Z,10.03
2018-04-25T00:40:34.154Z,10.38
2018-04-25T00:43:04.207Z,10.03
2018-04-25T00:45:34.354Z,10.85
2018-04-25T00:48:04.391Z,10.70
2018-04-25T00:50:34.706Z,12.00
2018-04-25T00:53:05.597Z,9.60
2018-04-25T00:55:36.634Z,9.90
2018-04-25T00:58:06.705Z,10.80
2018-04-25T01:00:36.831Z,8.40
2018-04-25T01:03:07.858Z,9.00
2018-04-25T01:05:38.026Z,8.40
2018-04-25T01:08:08.902Z,9.67
2018-04-25T01:10:38.846Z,8.30
2018-04-25T01:13:08.955Z,7.43
2018-04-25T01:15:39.198Z,8.18
2018-04-25T01:18:09.322Z,8.65
2018-04-25T01:20:39.571Z,9.53
2018-04-25T01:23:09.699Z,11.43
2018-04-25T01:25:43.170Z,9.80
2018-04-25T01:28:20.856Z,11.07
2018-04-25T01:31:01.700Z,10.70
2018-04-25T01:33:37.584Z,11.32
2018-04-25T01:36:16.177Z,10.83
2018-04-25T01:38:49.304Z,9.60
2018-04-25T01:41:20.286Z,9.07
2018-04-25T01:43:51.236Z,9.70
2018-04-25T01:46:29.148Z,11.45
2018-04-25T01:49:05.045Z,11.10
2018-04-25T01:51:46.860Z,9.20
2018-04-25T01:54:27.691Z,13.60
2018-04-25T01:57:09.217Z,16.07
2018-04-25T01:59:49.991Z,16.85
2018-04-25T02:02:18.858Z,18.05
2018-04-25T02:04:48.669Z,19.30
2018-04-25T02:07:18.390Z,15.95
2018-04-25T02:09:48.107Z,16.67
2018-04-25T02:12:17.929Z,16.88
2018-04-25T02:14:47.690Z,19.10
2018-04-25T02:17:17.756Z,18.43
2018-04-25T02:19:47.582Z,18.57
2018-04-25T02:22:17.450Z,23.10
2018-04-25T02:24:48.645Z,24.57
2018-04-25T02:27:18.489Z,23.90
2018-04-25T02:29:48.516Z,23.60
2018-04-25T02:32:19.031Z,24.80
2018-04-25T02:34:48.884Z,22.75
2018-04-25T02:37:18.626Z,21.85
2018-04-25T02:39:48.444Z,23.60
2018-04-25T02:42:18.468Z,20.93
2018-04-25T02:44:48.347Z,18.10
2018-04-25T02:47:18.255Z,24.12
2018-04-25T02:49:48.108Z,23.73
2018-04-25T02:52:17.834Z,21.52
2018-04-25T02:54:47.555Z,20.63
2018-04-25T02:57:18.037Z,17.87
2018-04-25T02:59:47.773Z,15.00
2018-04-25T03:02:17.813Z,12.23
2018-04-25T03:04:48.440Z,17.77
2018-04-25T03:07:19.033Z,17.13
2018-04-25T03:09:48.913Z,19.30
2018-04-25T03:12:18.704Z,19.77
2018-04-25T03:14:49.311Z,18.10
2018-04-25T03:17:19.164Z,16.85
2018-04-25T03:19:48.885Z,15.90
2018-04-25T03:22:19.678Z,18.20
2018-04-25T03:24:49.511Z,18.10
2018-04-25T03:27:19.383Z,17.17
2018-04-25T03:29:49.233Z,17.67
2018-04-25T03:32:20.454Z,16.67
2018-04-25T03:34:50.266Z,15.00
2018-04-25T03:37:20.119Z,15.20
2018-04-25T03:39:50.045Z,15.30
2018-04-25T03:42:19.802Z,16.47
2018-04-25T03:44:49.679Z,16.50
2018-04-25T03:47:19.437Z,14.30
2018-04-25T03:49:50.088Z,16.07
2018-04-25T03:52:19.826Z,14.63
2018-04-25T03:54:49.580Z,14.70
2018-04-25T03:57:19.423Z,14.57
2018-04-25T03:59:50.123Z,14.07
2018-04-25T04:02:19.913Z,12.33
2018-04-25T04:04:49.623Z,12.43
2018-04-25T04:07:19.438Z,11.30
2018-04-25T04:09:49.400Z,12.33
2018-04-25T04:12:20.019Z,10.67
2018-04-25T04:14:50.584Z,13.03
2018-04-25T04:17:20.424Z,14.40
2018-04-25T04:19:50.166Z,12.23
2018-04-25T04:22:21.702Z,12.53
2018-04-25T04:24:51.678Z,12.60
2018-04-25T04:27:21.463Z,13.27
2018-04-25T04:29:51.541Z,12.63
2018-04-25T04:32:21.395Z,13.00
2018-04-25T04:34:52.063Z,14.63
2018-04-25T04:37:21.948Z,14.40
2018-04-25T04:39:51.801Z,15.87
2018-04-25T04:42:21.797Z,14.60
2018-04-25T04:44:51.704Z,15.77
2018-04-25T04:47:21.444Z,16.70
2018-04-25T04:49:51.283Z,15.60
2018-04-25T04:52:20.969Z,17.47
2018-04-25T04:54:50.660Z,16.13
2018-04-25T04:57:20.725Z,15.93
2018-04-25T04:59:50.604Z,17.07
2018-04-25T05:02:20.485Z,16.77
2018-04-25T05:04:50.256Z,15.70
2018-04-25T05:07:20.092Z,15.32
2018-04-25T05:09:51.624Z,14.03
2018-04-25T05:12:21.485Z,14.47
2018-04-25T05:14:51.385Z,13.37
2018-04-25T05:17:21.219Z,12.70
2018-04-25T05:19:50.938Z,12.93
2018-04-25T05:22:20.674Z,11.97
2018-04-25T05:24:51.322Z,11.73
2018-04-25T05:27:22.010Z,10.50
2018-04-25T05:29:51.725Z,11.30
2018-04-25T05:32:21.479Z,12.00
2018-04-25T05:34:52.101Z,12.10
2018-04-25T05:37:22.099Z,11.40
2018-04-25T05:39:51.952Z,11.97
2018-04-25T05:42:22.484Z,11.13
2018-04-25T05:44:53.098Z,11.40
2018-04-25T05:47:24.053Z,11.70
2018-04-25T05:49:59.327Z,11.40
2018-04-25T05:52:29.191Z,11.00
2018-04-25T05:54:59.819Z,12.03
2018-04-25T05:57:30.328Z,11.90
2018-04-25T06:00:00.397Z,12.77
2018-04-25T06:02:30.534Z,14.60
2018-04-25T06:05:00.587Z,15.00
2018-04-25T06:07:30.765Z,14.90
2018-04-25T06:10:00.648Z,14.03
2018-04-25T06:12:31.191Z,15.67
2018-04-25T06:15:01.653Z,15.83
2018-04-25T06:17:32.005Z,17.10
2018-04-25T06:20:03.379Z,16.13
2018-04-25T06:22:33.852Z,15.23
2018-04-25T06:25:04.366Z,15.80
2018-04-25T06:27:34.792Z,13.37
2018-04-25T06:30:06.469Z,14.30
2018-04-25T06:32:37.323Z,14.57
2018-04-25T06:35:07.836Z,13.00
2018-04-25T06:37:38.245Z,12.67
2018-04-25T06:40:08.989Z,12.10
2018-04-25T06:42:38.775Z,12.10
2018-04-25T06:45:08.697Z,10.50
2018-04-25T06:47:38.579Z,11.80
2018-04-25T06:50:09.479Z,11.37
2018-04-25T06:52:39.264Z,12.87
2018-04-25T06:55:09.063Z,11.97
2018-04-25T06:57:38.879Z,10.43
2018-04-25T07:00:08.640Z,12.57
2018-04-25T07:02:38.385Z,11.98
2018-04-25T07:05:08.160Z,12.33
2018-04-25T07:07:38.246Z,11.97
2018-04-25T07:10:08.049Z,12.43
2018-04-25T07:12:37.835Z,11.70
2018-04-25T07:15:07.634Z,9.37
2018-04-25T07:17:38.202Z,9.60
2018-04-25T07:20:08.067Z,10.93
2018-04-25T07:22:39.532Z,9.90
2018-04-25T07:25:10.298Z,9.97
2018-04-25T07:27:40.111Z,9.80
2018-04-25T07:30:09.911Z,8.77
2018-04-25T07:32:39.732Z,9.67
2018-04-25T07:35:09.508Z,10.43
2018-04-25T07:37:40.157Z,8.17
2018-04-25T07:40:10.022Z,9.57
2018-04-25T07:42:40.075Z,8.50
2018-04-25T07:45:10.633Z,7.63
2018-04-25T07:47:40.639Z,7.60
2018-04-25T07:50:10.742Z,7.07
2018-04-25T07:52:40.547Z,7.93
2018-04-25T07:55:11.143Z,6.90
2018-04-25T07:57:40.939Z,7.93
2018-04-25T08:00:10.803Z,8.63
2018-04-25T08:02:41.371Z,8.47
2018-04-25T08:05:11.191Z,9.02
2018-04-25T08:07:41.008Z,9.00
2018-04-25T08:10:10.808Z,9.60
2018-04-25T08:12:51.644Z,10.88
2018-04-25T08:15:33.953Z,9.68
2018-04-25T08:18:16.385Z,8.77
2018-04-25T08:21:07.395Z,9.60
2018-04-25T08:23:37.956Z,9.27
2018-04-25T08:26:08.410Z,8.90
2018-04-25T08:28:38.998Z,9.70
2018-04-25T08:31:09.459Z,9.77
2018-04-25T08:33:39.875Z,9.87
2018-04-25T08:36:13.244Z,10.00
2018-04-25T08:38:43.759Z,9.40
2018-04-25T08:41:14.239Z,10.83
2018-04-25T08:43:45.787Z,9.48
2018-04-25T08:46:16.347Z,10.40
2018-04-25T08:48:48.473Z,10.07
2018-04-25T08:51:18.900Z,9.97
2018-04-25T08:53:49.771Z,9.90
2018-04-25T08:56:22.102Z,9.40
2018-04-25T08:58:54.130Z,9.23
2018-04-25T09:01:24.658Z,10.10
2018-04-25T09:03:55.060Z,10.20
2018-04-25T09:06:26.411Z,9.07
2018-04-25T09:08:58.617Z,9.57
2018-04-25T09:11:29.951Z,6.22
2018-04-25T09:14:01.800Z,6.70
2018-04-25T09:16:32.340Z,5.90
2018-04-25T09:19:02.954Z,5.70
2018-04-25T09:21:33.789Z,6.22
2018-04-25T09:24:05.085Z,5.67
2018-04-25T09:26:35.648Z,5.85
2018-04-25T09:29:06.446Z,6.20
2018-04-25T09:31:36.880Z,5.33
2018-04-25T09:34:11.440Z,6.03
2018-04-25T09:36:42.984Z,5.47
2018-04-25T09:39:14.226Z,5.77
2018-04-25T09:41:47.653Z,5.60
2018-04-25T09:44:19.230Z,6.03
2018-04-25T09:46:52.289Z,5.70
2018-04-25T09:49:23.582Z,6.07
2018-04-25T09:51:55.491Z,5.80
2018-04-25T09:54:26.170Z,5.67
2018-04-25T09:56:58.876Z,5.90
2018-04-25T09:59:31.317Z,6.72
2018-04-25T10:02:07.427Z,6.13
2018-04-25T10:04:38.676Z,5.80
2018-04-25T10:07:12.012Z,6.03
2018-04-25T10:09:45.295Z,6.87
2018-04-25T10:12:17.526Z,5.70
2018-04-25T10:14:49.943Z,5.87
2018-04-25T10:17:21.641Z,5.80
2018-04-25T10:19:52.704Z,5.90
2018-04-25T10:22:23.294Z,6.28
2018-04-25T10:24:53.103Z,6.83
2018-04-25T10:27:23.512Z,6.57
2018-04-25T10:29:54.074Z,5.87
2018-04-25T10:32:24.184Z,5.90
2018-04-25T10:34:55.085Z,6.85
2018-04-25T10:37:24.855Z,6.00
2018-04-25T10:39:55.415Z,6.87
2018-04-25T10:42:25.166Z,6.57
2018-04-25T10:44:54.976Z,6.20
2018-04-25T10:47:25.661Z,5.83
2018-04-25T10:49:55.449Z,5.60
2018-04-25T10:52:25.239Z,5.60
2018-04-25T10:54:55.217Z,5.37
2018-04-25T10:57:25.312Z,5.80
2018-04-25T10:59:56.159Z,6.57
2018-04-25T11:02:26.230Z,6.33
2018-04-25T11:04:56.011Z,6.37
2018-04-25T11:07:25.923Z,6.68
2018-04-25T11:09:55.786Z,6.85
2018-04-25T11:12:26.736Z,7.25
2018-04-25T11:14:57.257Z,6.83
2018-04-25T11:17:28.585Z,5.80
2018-04-25T11:19:59.141Z,5.17
2018-04-25T11:22:30.325Z,6.23
2018-04-25T11:25:00.774Z,5.90
2018-04-25T11:27:32.204Z,5.40
2018-04-25T11:30:03.400Z,5.60
2018-04-25T11:32:33.829Z,6.10
2018-04-25T11:35:04.363Z,6.07
2018-04-25T11:37:35.937Z,5.80
2018-04-25T11:40:06.365Z,5.27
2018-04-25T11:42:37.719Z,5.37
2018-04-25T11:45:08.146Z,5.50
2018-04-25T11:47:41.673Z,6.00
2018-04-25T11:50:14.152Z,5.95
2018-04-25T11:52:45.488Z,5.55
2018-04-25T11:55:16.083Z,5.33
2018-04-25T11:57:48.215Z,5.40
2018-04-25T12:00:19.887Z,5.50
2018-04-25T12:02:50.650Z,5.40
2018-04-25T12:05:21.153Z,5.53
2018-04-25T12:07:54.415Z,5.85
2018-04-25T12:10:25.014Z,4.47
2018-04-25T12:12:55.435Z,4.50
2018-04-25T12:15:27.142Z,3.70
2018-04-25T12:17:57.689Z,3.80
2018-04-25T12:20:30.921Z,4.53
2018-04-25T12:23:01.537Z,4.27
2018-04-25T12:25:32.095Z,4.50
2018-04-25T12:28:02.661Z,5.70
2018-04-25T12:30:34.228Z,4.60
2018-04-25T12:33:05.570Z,4.83
2018-04-25T12:35:36.860Z,4.50
2018-04-25T12:38:08.038Z,4.50
2018-04-25T12:40:38.695Z,4.60
2018-04-25T12:43:10.935Z,5.20
2018-04-25T12:45:41.493Z,4.22
2018-04-25T12:48:12.824Z,3.73
2018-04-25T12:50:43.304Z,4.27
2018-04-25T12:53:15.078Z,4.70
2018-04-25T12:55:45.657Z,4.80
2018-04-25T12:58:16.416Z,4.83
2018-04-25T13:00:47.156Z,4.65
2018-04-25T13:03:17.774Z,5.40
2018-04-25T13:05:48.371Z,3.90
2018-04-25T13:08:18.983Z,5.77
2018-04-25T13:10:49.488Z,4.65
2018-04-25T13:13:20.091Z,4.77
2018-04-25T13:15:50.735Z,4.80
2018-04-25T13:18:23.008Z,4.60
2018-04-25T13:20:54.259Z,4.60
2018-04-25T13:23:24.809Z,5.20
2018-04-25T13:25:56.091Z,3.87
2018-04-25T13:28:26.594Z,4.10
2018-04-25T13:30:57.164Z,3.90
2018-04-25T13:33:29.212Z,3.70
2018-04-25T13:36:02.873Z,4.32
2018-04-25T13:38:36.858Z,4.90
2018-04-25T13:41:07.323Z,4.27
2018-04-25T13:43:38.635Z,4.90
2018-04-25T13:46:13.099Z,4.13
2018-04-25T13:48:45.579Z,4.15
2018-04-25T13:51:16.061Z,3.70
2018-04-25T13:53:46.504Z,3.90
2018-04-25T13:56:16.924Z,3.87
2018-04-25T13:58:51.837Z,3.87
2018-04-25T14:01:23.196Z,3.65
2018-04-25T14:04:06.006Z,3.90
2018-04-25T14:06:37.301Z,4.20
2018-04-25T14:09:08.056Z,4.97
2018-04-25T14:11:38.780Z,4.50
2018-04-25T14:14:09.274Z,4.47
2018-04-25T14:16:40.160Z,4.20
2018-04-25T14:19:10.750Z,4.90
2018-04-25T14:21:42.965Z,5.80
2018-04-25T14:24:14.195Z,4.43
2018-04-25T14:26:44.847Z,5.00
2018-04-25T14:29:16.910Z,4.17
2018-04-25T14:31:48.272Z,4.87
2018-04-25T14:34:19.603Z,5.37
2018-04-25T14:36:51.154Z,5.15
2018-04-25T14:39:23.675Z,4.87
2018-04-25T14:41:54.174Z,4.47
2018-04-25T14:44:28.423Z,5.43
2018-04-25T14:47:00.019Z,4.20
2018-04-25T14:49:31.237Z,4.00
2018-04-25T14:52:05.373Z,4.70
2018-04-25T14:54:40.456Z,5.37
2018-04-25T14:57:11.188Z,5.60
2018-04-25T14:59:43.980Z,5.23
2018-04-25T15:02:15.294Z,4.80
2018-04-25T15:04:47.482Z,4.87
2018-04-25T15:07:19.629Z,4.30
2018-04-25T15:09:50.873Z,5.00
2018-04-25T15:12:22.874Z,4.30
2018-04-25T15:14:57.792Z,4.25
2018-04-25T15:17:29.677Z,3.70
2018-04-25T15:20:01.810Z,4.30
2018-04-25T15:22:32.481Z,4.33
2018-04-25T15:25:04.040Z,4.73
2018-04-25T15:27:39.574Z,3.40
2018-04-25T15:30:11.708Z,4.20
2018-04-25T15:32:42.310Z,3.97
2018-04-25T15:35:13.654Z,3.83
2018-04-25T15:37:45.235Z,4.70
2018-04-25T15:40:15.829Z,3.80
2018-04-25T15:42:48.870Z,3.97
2018-04-25T15:45:19.374Z,4.40
2018-04-25T15:47:52.536Z,4.15
2018-04-25T15:50:23.129Z,4.30
2018-04-25T15:52:53.770Z,4.53
2018-04-25T15:55:24.372Z,3.37
2018-04-25T15:57:54.919Z,4.03
2018-04-25T16:00:25.555Z,4.20
2018-04-25T16:02:59.596Z,4.10
2018-04-25T16:05:30.253Z,4.17
2018-04-25T16:08:01.585Z,4.53
2018-04-25T16:10:32.543Z,4.17
2018-04-25T16:13:05.158Z,4.23
2018-04-25T16:15:36.680Z,4.23
2018-04-25T16:18:08.707Z,4.70
2018-04-25T16:20:44.896Z,4.63
2018-04-25T16:23:16.767Z,5.90
2018-04-25T16:25:47.375Z,8.80
2018-04-25T16:28:18.668Z,10.87
2018-04-25T16:30:50.493Z,11.33
2018-04-25T16:33:21.041Z,9.77
2018-04-25T16:35:53.107Z,9.13
2018-04-25T16:38:23.601Z,9.37
2018-04-25T16:40:55.587Z,10.23
2018-04-25T16:43:27.959Z,9.40
2018-04-25T16:46:02.151Z,9.60
2018-04-25T16:48:33.722Z,8.20
2018-04-25T16:51:05.462Z,8.13
2018-04-25T16:53:38.937Z,7.13
2018-04-25T16:56:12.171Z,6.67
2018-04-25T16:58:42.621Z,6.60
2018-04-25T17:01:16.268Z,7.50
2018-04-25T17:03:47.126Z,7.03
2018-04-25T17:06:18.641Z,6.77
2018-04-25T17:08:49.892Z,6.83
2018-04-25T17:13:59.926Z,6.97
2018-04-25T17:16:30.464Z,7.93
2018-04-25T17:21:45.096Z,6.42
2018-04-25T17:26:54.234Z,6.85
2018-04-25T17:29:26.455Z,6.80
2018-04-25T17:31:58.555Z,6.53
2018-04-25T17:34:28.970Z,6.65
2018-04-25T17:36:59.580Z,7.10
2018-04-25T17:39:31.232Z,7.33
2018-04-25T17:42:01.711Z,7.10
2018-04-25T17:44:32.911Z,6.93
2018-04-25T17:47:04.296Z,7.23
2018-04-25T17:49:36.123Z,6.93
2018-04-25T17:52:06.778Z,7.20
2018-04-25T17:54:40.196Z,7.93
2018-04-25T17:57:11.016Z,8.67
2018-04-25T17:59:43.657Z,8.27
2018-04-25T18:02:15.900Z,7.70
2018-04-25T18:04:46.415Z,9.07
2018-04-25T18:07:18.513Z,8.20
2018-04-25T18:09:50.168Z,8.63
2018-04-25T18:12:25.999Z,8.47
2018-04-25T18:14:58.150Z,8.13
2018-04-25T18:17:30.397Z,9.73
2018-04-25T18:20:03.049Z,7.60
2018-04-25T18:22:33.534Z,8.90
2018-04-25T18:25:06.173Z,9.13
2018-04-25T18:27:39.623Z,9.50
2018-04-25T18:30:11.405Z,8.83
2018-04-25T18:32:43.006Z,9.27
2018-04-25T18:35:15.927Z,8.50
2018-04-25T18:37:48.603Z,9.37
2018-04-25T18:40:20.598Z,8.77
2018-04-25T18:42:52.944Z,10.53
2018-04-25T18:45:24.795Z,8.57
2018-04-25T18:47:57.967Z,8.93
2018-04-25T18:50:29.475Z,8.40
2018-04-25T18:53:01.403Z,8.70
2018-04-25T18:55:31.998Z,9.27
2018-04-25T18:58:02.524Z,9.13
2018-04-25T19:00:32.898Z,8.20
2018-04-25T19:03:03.532Z,9.40
2018-04-25T19:05:35.560Z,9.37
2018-04-25T19:08:10.229Z,9.40
2018-04-25T19:10:40.825Z,9.73
2018-04-25T19:13:11.585Z,8.70
2018-04-25T19:15:42.144Z,9.77
2018-04-25T19:18:15.922Z,8.03
2018-04-25T19:20:46.709Z,9.05
2018-04-25T19:23:19.003Z,8.10
2018-04-25T19:25:49.448Z,7.53
2018-04-25T19:28:20.486Z,8.17
2018-04-25T19:30:51.083Z,9.47
2018-04-25T19:33:22.390Z,8.30
2018-04-25T19:35:52.953Z,9.60
2018-04-25T19:38:25.447Z,7.70
2018-04-25T19:40:55.996Z,7.55
2018-04-25T19:43:28.025Z,7.57
2018-04-25T19:46:00.239Z,6.37
2018-04-25T19:48:30.798Z,6.53
2018-04-25T19:51:02.117Z,7.47
2018-04-25T19:53:32.514Z,8.03
2018-04-25T19:56:03.614Z,7.20
2018-04-25T19:58:33.977Z,7.73
2018-04-25T20:01:05.031Z,6.90
2018-04-25T20:03:35.600Z,6.60
2018-04-25T20:06:05.981Z,6.30
2018-04-25T20:08:35.642Z,6.33
2018-04-25T20:11:05.367Z,6.30
2018-04-25T20:13:35.213Z,5.87
2018-04-25T20:16:04.895Z,6.20
2018-04-25T20:18:36.532Z,6.00
2018-04-25T20:21:06.267Z,6.83
2018-04-25T20:23:36.755Z,6.87
2018-04-25T20:26:06.561Z,6.60
2018-04-25T20:28:36.289Z,6.60
2018-04-25T20:31:06.955Z,7.67
2018-04-25T20:33:36.796Z,5.83
2018-04-25T20:36:06.690Z,6.10
2018-04-25T20:38:36.380Z,6.90
2018-04-25T20:41:06.884Z,7.10
2018-04-25T20:43:36.789Z,8.10
2018-04-25T20:46:06.520Z,7.87
2018-04-25T20:48:36.268Z,8.10
2018-04-25T20:51:06.021Z,7.27
2018-04-25T20:53:35.899Z,8.50
2018-04-25T20:56:05.629Z,6.83
2018-04-25T20:58:35.513Z,6.90
2018-04-25T21:01:05.483Z,7.10
2018-04-25T21:03:35.388Z,6.73
2018-04-25T21:06:05.447Z,6.20
2018-04-25T21:08:36.649Z,5.60
2018-04-25T21:11:06.515Z,5.97
2018-04-25T21:13:36.253Z,5.93
2018-04-25T21:16:06.012Z,6.07
2018-04-25T21:18:36.646Z,5.60
2018-04-25T21:21:07.155Z,5.73
2018-04-25T21:23:37.413Z,7.43
2018-04-25T21:26:08.053Z,7.73
2018-04-25T21:28:39.478Z,7.00
2018-04-25T21:31:10.109Z,7.73
2018-04-25T21:33:40.791Z,6.90
2018-04-25T21:36:10.548Z,6.60
2018-04-25T21:38:41.739Z,5.13
2018-04-25T21:41:11.640Z,5.70
2018-04-25T21:43:41.371Z,5.47
2018-04-25T21:46:11.135Z,5.43
2018-04-25T21:48:41.958Z,5.20
2018-04-25T21:51:11.707Z,5.13
2018-04-25T21:53:41.484Z,5.30
2018-04-25T21:56:11.987Z,4.90
2018-04-25T21:58:41.874Z,5.43
2018-04-25T22:01:11.797Z,5.77
2018-04-25T22:03:41.526Z,4.80
2018-04-25T22:06:11.238Z,5.37
2018-04-25T22:08:41.132Z,5.30
2018-04-25T22:11:10.798Z,6.23
2018-04-25T22:13:41.486Z,5.70
2018-04-25T22:16:11.189Z,6.13
2018-04-25T22:18:40.916Z,6.17
2018-04-25T22:21:10.837Z,6.47
2018-04-25T22:23:40.680Z,6.10
2018-04-25T22:26:11.317Z,5.23
2018-04-25T22:28:41.045Z,6.60
2018-04-25T22:31:11.190Z,6.43
2018-04-25T22:33:41.062Z,6.70
2018-04-25T22:36:10.892Z,7.03
2018-04-25T22:38:40.805Z,7.40
2018-04-25T22:41:10.628Z,6.87
2018-04-25T22:43:40.527Z,7.70
2018-04-25T22:46:10.388Z,7.95
2018-04-25T22:48:40.253Z,6.97
2018-04-25T22:51:10.077Z,7.80
2018-04-25T22:53:39.792Z,8.10
2018-04-25T22:56:09.692Z,7.43
2018-04-25T22:58:41.826Z,7.63
2018-04-25T23:01:12.365Z,6.73
2018-04-25T23:03:42.876Z,7.97
2018-04-25T23:06:13.508Z,8.80
2018-04-25T23:08:44.120Z,7.73
2018-04-25T23:11:14.023Z,8.10
2018-04-25T23:13:43.973Z,7.37
2018-04-25T23:16:14.683Z,7.90
2018-04-25T23:18:44.611Z,7.65
2018-04-25T23:21:14.511Z,8.00
2018-04-25T23:23:44.412Z,8.32
2018-04-25T23:26:14.396Z,8.60
2018-04-25T23:28:44.328Z,8.60
2018-04-25T23:31:14.554Z,8.30
2018-04-25T23:33:44.449Z,8.30
2018-04-25T23:36:14.379Z,7.90
2018-04-25T23:38:44.344Z,8.20
2018-04-25T23:41:14.971Z,8.10
2018-04-25T23:43:45.593Z,6.97
2018-04-25T23:46:15.567Z,7.87
2018-04-25T23:48:45.519Z,8.40
2018-04-25T23:51:15.447Z,6.80
2018-04-25T23:53:46.151Z,7.65
2018-04-25T23:56:16.240Z,7.40
2018-04-25T23:58:46.140Z,8.43
